Time;durP1;ratioP1;P1;durP2;ratioP2;P2;SDS_P1;SDS_P2;PMS_P1;PMS_P2;Temp;Humidity;BMP_temperature;BMP_pressure;BME280_temperature;BME280_humidity;BME280_pressure;Samples;Min_cycle;Max_cycle;Signal;HPM_P1;HPM_P2
2022/10/17 00:00:30;;;;;;;4.22;2.42;;;;;;;15.92;70.20;101524.41;5086140;28;20067;-71
2022/10/17 00:02:58;;;;;;;3.47;2.20;;;;;;;15.93;70.14;101526.06;5083956;28;20088;-71
2022/10/17 00:05:26;;;;;;;3.97;2.40;;;;;;;15.93;70.06;101527.94;5086631;28;20072;-71
2022/10/17 00:07:54;;;;;;;5.00;2.20;;;;;;;15.92;69.84;101519.00;5086979;28;20104;-71
2022/10/17 00:10:24;;;;;;;3.92;2.25;;;;;;;15.92;70.03;101526.31;5084505;28;20051;-71
2022/10/17 00:12:52;;;;;;;4.47;2.40;;;;;;;15.92;69.90;101518.16;5088847;28;20054;-71
2022/10/17 00:15:21;;;;;;;3.30;2.22;;;;;;;15.91;69.98;101522.78;5090908;28;20050;-71
2022/10/17 00:17:49;;;;;;;3.92;2.03;;;;;;;15.91;69.81;101516.53;5086569;28;20112;-71
2022/10/17 00:20:17;;;;;;;4.72;2.35;;;;;;;15.83;69.81;101504.19;5092688;28;20135;-71
2022/10/17 00:22:45;;;;;;;4.75;2.55;;;;;;;15.89;69.83;101516.75;5084130;28;20108;-71
2022/10/17 00:25:13;;;;;;;4.97;2.85;;;;;;;15.87;69.97;101512.66;5084738;28;20048;-71
2022/10/17 00:27:43;;;;;;;3.55;2.10;;;;;;;15.87;70.12;101508.06;5089345;28;20075;-71
2022/10/17 00:30:13;;;;;;;5.47;2.38;;;;;;;15.85;69.92;101504.75;5082359;28;20071;-71
2022/10/17 00:32:41;;;;;;;4.03;2.35;;;;;;;15.85;69.98;101509.34;5085250;28;20212;-71
2022/10/17 00:35:09;;;;;;;2.92;2.05;;;;;;;15.84;69.95;101508.53;5086486;28;20045;-71
2022/10/17 00:37:38;;;;;;;3.28;2.15;;;;;;;15.85;69.88;101504.75;5080266;28;20113;-71
2022/10/17 00:40:07;;;;;;;2.72;2.30;;;;;;;15.83;69.97;101497.94;5086114;28;20055;-71
2022/10/17 00:42:35;;;;;;;5.22;2.17;;;;;;;15.83;70.06;101498.75;5093459;28;20136;-71
2022/10/17 00:45:13;;;;;;;4.47;2.53;;;;;;;15.78;69.98;101495.94;5083967;28;20123;-71
2022/10/17 00:47:42;;;;;;;5.10;2.55;;;;;;;15.82;69.92;101507.13;5075644;28;20454;-71
2022/10/17 00:50:11;;;;;;;4.18;2.30;;;;;;;15.81;69.95;101502.78;5086315;28;20091;-71
2022/10/17 00:52:40;;;;;;;7.05;2.47;;;;;;;15.79;70.01;101503.00;5083944;28;20163;-71
2022/10/17 00:55:12;;;;;;;3.88;2.45;;;;;;;15.80;70.05;101506.53;5088676;28;20049;-71
2022/10/17 00:57:41;;;;;;;4.88;2.70;;;;;;;15.80;70.03;101506.53;5084249;28;20037;-71
2022/10/17 01:00:11;;;;;;;2.95;2.00;;;;;;;15.70;69.88;101490.91;5085225;28;20060;-71
2022/10/17 01:02:39;;;;;;;2.60;2.05;;;;;;;15.78;70.11;101495.13;5079790;28;20127;-71
2022/10/17 01:05:09;;;;;;;2.53;2.05;;;;;;;15.78;70.00;101500.53;5084119;28;20051;-71
2022/10/17 01:07:38;;;;;;;5.63;2.45;;;;;;;15.75;70.09;101491.00;5085979;28;20387;-71
2022/10/17 01:10:08;;;;;;;6.43;2.90;;;;;;;15.76;70.15;101495.34;5081996;28;20143;-71
2022/10/17 01:12:57;;;;;;;4.43;2.17;;;;;;;15.75;70.00;101499.13;5082503;28;20052;-71
2022/10/17 01:15:37;;;;;;;2.95;2.05;;;;;;;15.76;70.16;101500.78;5075371;28;20797;-71
2022/10/17 01:18:17;;;;;;;4.05;2.60;;;;;;;15.76;69.96;101499.97;5083997;28;20132;-71
2022/10/17 01:21:26;;;;;;;3.80;2.47;;;;;;;15.75;69.97;101498.31;5072916;28;20136;-71
2022/10/17 01:24:08;;;;;;;4.40;2.63;;;;;;;15.75;70.13;101507.25;5072052;28;20059;-71
2022/10/17 01:26:55;;;;;;;7.03;2.47;;;;;;;15.75;69.94;101498.31;5090053;28;20113;-71
2022/10/17 01:29:33;;;;;;;;;;;;;;;15.75;70.02;101506.44;5081524;28;20052;-71
2022/10/17 01:32:08;;;;;;;3.70;2.33;;;;;;;15.75;69.92;101499.13;5079837;28;20366;-71
2022/10/17 01:34:46;;;;;;;3.97;2.50;;;;;;;15.68;69.97;101486.78;5085062;28;20052;-71
2022/10/17 01:37:19;;;;;;;3.20;2.50;;;;;;;15.75;69.98;101490.19;5100352;28;20040;-71
2022/10/17 01:39:51;;;;;;;3.53;2.10;;;;;;;15.74;70.07;101500.19;5082137;28;20224;-71
2022/10/17 01:42:25;;;;;;;3.90;2.50;;;;;;;15.74;70.04;101505.63;5078038;28;20040;-71
2022/10/17 01:44:58;;;;;;;5.47;3.10;;;;;;;15.75;69.96;101492.88;5074346;28;20132;-71
2022/10/17 01:47:30;;;;;;;3.80;2.40;;;;;;;15.74;70.08;101486.66;5092014;28;20154;-71
2022/10/17 01:50:02;;;;;;;5.03;2.63;;;;;;;15.73;70.05;101489.59;5080455;28;20087;-71
2022/10/17 01:52:38;;;;;;;7.22;3.28;;;;;;;15.74;70.17;101480.41;5085733;28;20059;-71
2022/10/17 01:55:09;;;;;;;4.13;3.08;;;;;;;15.72;69.94;101477.94;5085806;28;20048;-71
2022/10/17 01:57:40;;;;;;;3.70;2.70;;;;;;;15.73;70.11;101478.75;5086464;28;20497;-70
2022/10/17 02:00:13;;;;;;;7.70;2.80;;;;;;;15.73;69.83;101493.13;5080526;28;20052;-71
2022/10/17 02:02:45;;;;;;;3.85;2.70;;;;;;;15.73;70.14;101481.47;5086643;28;20131;-71
2022/10/17 02:05:12;;;;;;;3.60;2.70;;;;;;;15.74;70.18;101483.13;5085192;28;20109;-71
2022/10/17 02:07:41;;;;;;;5.32;2.72;;;;;;;15.73;70.23;101484.19;5078456;28;20087;-71
2022/10/17 02:10:16;;;;;;;3.90;2.45;;;;;;;15.73;70.11;101468.75;5079828;28;20044;-71
2022/10/17 02:12:54;;;;;;;3.90;2.72;;;;;;;15.72;70.18;101471.69;5089113;28;20080;-71
2022/10/17 02:15:38;;;;;;;4.25;2.83;;;;;;;15.72;70.17;101466.28;5084190;28;20155;-71
2022/10/17 02:18:23;;;;;;;3.33;2.40;;;;;;;15.71;70.19;101465.44;5091753;28;20048;-71
2022/10/17 02:20:56;;;;;;;5.55;3.20;;;;;;;15.70;70.36;101471.94;5081035;28;20055;-71
2022/10/17 02:23:32;;;;;;;4.10;2.65;;;;;;;15.70;70.26;101468.41;5084083;28;20048;-71
2022/10/17 02:26:10;;;;;;;3.67;2.65;;;;;;;15.69;70.36;101472.16;5079302;28;20160;-71
2022/10/17 02:28:43;;;;;;;4.70;3.05;;;;;;;15.69;70.41;101461.34;5079693;28;20064;-71
2022/10/17 02:31:15;;;;;;;3.83;2.70;;;;;;;15.68;70.40;101465.09;5081920;28;20045;-71
2022/10/17 02:33:50;;;;;;;4.68;2.90;;;;;;;15.67;70.42;101468.88;5089783;28;20054;-71
2022/10/17 02:36:22;;;;;;;4.32;2.65;;;;;;;15.65;70.38;101460.16;5081388;28;20501;-71
2022/10/17 02:38:53;;;;;;;3.80;2.63;;;;;;;15.67;70.68;101463.47;5081822;28;20131;-71
2022/10/17 02:41:23;;;;;;;6.68;2.58;;;;;;;15.67;70.61;101471.59;5079866;28;20049;-71
2022/10/17 02:43:53;;;;;;;4.18;2.75;;;;;;;15.66;70.27;101470.75;5079675;28;20041;-71
2022/10/17 02:46:28;;;;;;;4.45;2.85;;;;;;;15.65;70.45;101465.59;5082273;28;20088;-71
2022/10/17 02:49:02;;;;;;;3.42;2.90;;;;;;;15.63;70.30;101466.66;5081637;28;20054;-71
2022/10/17 02:51:36;;;;;;;4.03;2.88;;;;;;;15.63;70.29;101465.81;5080744;28;20139;-71
2022/10/17 02:54:12;;;;;;;5.65;2.88;;;;;;;15.62;70.44;101456.06;5076918;28;20051;-71
2022/10/17 02:56:46;;;;;;;4.80;2.78;;;;;;;15.63;70.37;101463.13;5085415;28;20051;-71
2022/10/17 02:59:17;;;;;;;5.72;3.28;;;;;;;15.61;70.35;101460.66;5081687;28;20048;-71
2022/10/17 03:01:45;;;;;;;6.35;3.00;;;;;;;15.61;70.40;101459.81;5078904;28;20479;-71
2022/10/17 03:04:15;;;;;;;3.50;2.88;;;;;;;15.61;70.29;101460.66;5078621;28;20045;-71
2022/10/17 03:06:43;;;;;;;4.43;3.30;;;;;;;15.60;70.55;101460.91;5087544;28;20050;-71
2022/10/17 03:09:11;;;;;;;5.15;2.90;;;;;;;15.60;70.43;101460.91;5084477;28;20123;-71
2022/10/17 03:11:38;;;;;;;4.88;2.90;;;;;;;15.60;70.45;101461.72;5082134;28;20058;-71
2022/10/17 03:14:06;;;;;;;4.65;3.00;;;;;;;15.60;70.50;101469.03;5082053;28;20048;-71
2022/10/17 03:16:34;;;;;;;3.80;2.53;;;;;;;15.60;70.32;101459.00;5083576;28;20043;-71
2022/10/17 03:19:02;;;;;;;4.57;2.80;;;;;;;15.59;70.34;101464.69;5088226;28;20140;-71
2022/10/17 03:21:31;;;;;;;3.90;2.60;;;;;;;15.60;70.27;101469.03;5076968;28;20056;-71
2022/10/17 03:23:59;;;;;;;4.50;2.95;;;;;;;15.60;70.37;101477.97;5094685;28;20131;-71
2022/10/17 03:26:28;;;;;;;5.35;3.00;;;;;;;15.60;70.32;101474.47;5089427;28;20053;-72
2022/10/17 03:28:56;;;;;;;5.65;2.92;;;;;;;15.59;70.17;101478.25;5084090;28;20053;-71
2022/10/17 03:31:24;;;;;;;5.28;2.55;;;;;;;15.59;70.29;101472.81;5086428;28;20048;-71
2022/10/17 03:33:52;;;;;;;6.57;3.00;;;;;;;15.58;70.30;101474.69;5085623;28;20048;-71
2022/10/17 03:36:20;;;;;;;5.35;3.00;;;;;;;15.52;70.42;101463.97;5084259;28;20058;-71
2022/10/17 03:38:53;;;;;;;3.25;2.47;;;;;;;15.58;70.42;101469.28;5086020;28;20541;-71
2022/10/17 03:41:21;;;;;;;5.90;2.75;;;;;;;15.59;70.35;101472.81;5084860;28;20125;-71
2022/10/17 03:43:49;;;;;;;3.88;2.85;;;;;;;15.58;70.50;101466.56;5082898;28;20048;-71
2022/10/17 03:46:17;;;;;;;9.40;3.45;;;;;;;15.58;70.35;101469.28;5082873;28;20049;-71
2022/10/17 03:48:49;;;;;;;6.68;2.83;;;;;;;15.57;70.30;101466.81;5091661;28;20059;-71
2022/10/17 03:51:17;;;;;;;4.82;2.90;;;;;;;15.56;70.37;101471.38;5091794;28;20056;-71
2022/10/17 03:53:45;;;;;;;4.57;3.13;;;;;;;15.58;70.50;101476.59;5087307;28;20136;-72
2022/10/17 03:56:16;;;;;;;6.32;2.63;;;;;;;15.58;70.39;101480.13;5096865;28;20049;-71
2022/10/17 03:58:45;;;;;;;4.82;3.13;;;;;;;15.58;70.55;101473.88;5082079;28;20550;-71
2022/10/17 04:01:15;;;;;;;3.85;2.75;;;;;;;15.58;70.57;101479.31;5082847;28;20061;-71
2022/10/17 04:03:44;;;;;;;4.50;2.75;;;;;;;15.59;70.50;101478.25;5083424;28;20055;-71
2022/10/17 04:06:12;;;;;;;7.38;3.20;;;;;;;15.51;70.71;101471.28;5086016;28;20049;-71
2022/10/17 04:08:41;;;;;;;5.38;2.80;;;;;;;15.58;70.64;101479.31;5087410;28;20078;-71
2022/10/17 04:11:13;;;;;;;3.92;3.00;;;;;;;15.56;70.63;101479.50;5085316;28;20060;-71
2022/10/17 04:13:42;;;;;;;4.00;3.05;;;;;;;15.57;70.59;101485.78;5085109;28;20054;-71
2022/10/17 04:16:12;;;;;;;6.03;3.35;;;;;;;15.57;70.61;101488.50;5078966;28;20132;-71
2022/10/17 04:18:40;;;;;;;4.35;3.15;;;;;;;15.56;70.87;101474.09;5087900;28;20055;-71
2022/10/17 04:21:09;;;;;;;5.22;2.92;;;;;;;15.56;70.93;101481.41;5084928;28;20052;-71
2022/10/17 04:23:37;;;;;;;5.60;2.88;;;;;;;15.55;70.91;101483.28;5080163;28;20048;-71
2022/10/17 04:26:06;;;;;;;12.35;3.17;;;;;;;15.55;71.21;101486.00;5082744;28;20048;-71
2022/10/17 04:28:34;;;;;;;3.20;2.70;;;;;;;15.56;71.16;101497.66;5083926;28;20110;-71
2022/10/17 04:31:06;;;;;;;6.78;3.45;;;;;;;15.55;71.12;101499.53;5083597;28;20041;-71
2022/10/17 04:33:34;;;;;;;7.43;3.55;;;;;;;15.55;71.41;101496.00;5084361;28;20532;-71
2022/10/17 04:36:05;;;;;;;8.02;3.42;;;;;;;15.55;71.32;101504.13;5081615;28;20120;-71
2022/10/17 04:38:34;;;;;;;4.38;3.33;;;;;;;15.55;71.64;101498.72;5084449;28;21271;-71
2022/10/17 04:41:04;;;;;;;5.50;3.25;;;;;;;15.55;71.55;101499.53;5075904;28;20100;-71
2022/10/17 04:43:33;;;;;;;5.13;3.22;;;;;;;15.56;71.66;101505.78;5082968;28;20150;-71
2022/10/17 04:46:02;;;;;;;3.83;2.25;;;;;;;15.56;71.57;101506.59;5083111;28;20153;-71
2022/10/17 04:48:32;;;;;;;3.72;2.90;;;;;;;15.56;71.43;101512.03;5087086;28;20075;-71
2022/10/17 04:51:01;;;;;;;5.22;3.40;;;;;;;15.55;71.60;101507.66;5079917;28;20490;-71
2022/10/17 04:53:31;;;;;;;5.40;3.60;;;;;;;15.55;71.64;101525.81;5082206;28;20045;-71
2022/10/17 04:55:59;;;;;;;6.75;3.22;;;;;;;15.55;71.38;101532.03;5084801;28;20055;-71
2022/10/17 04:58:28;;;;;;;4.95;2.80;;;;;;;15.55;71.44;101533.94;5084839;28;20045;-71
2022/10/17 05:00:56;;;;;;;5.57;2.75;;;;;;;15.54;71.30;101532.28;5082312;28;20068;-71
2022/10/17 05:03:24;;;;;;;3.60;2.72;;;;;;;15.55;71.19;101536.63;5086227;28;20044;-71
2022/10/17 05:05:53;;;;;;;4.63;3.08;;;;;;;15.54;71.24;101535.00;5098930;28;20147;-71
2022/10/17 05:08:21;;;;;;;4.68;2.97;;;;;;;15.55;71.64;101539.34;5088595;28;20056;-71
2022/10/17 05:10:49;;;;;;;3.78;2.78;;;;;;;15.53;71.31;101528.75;5084920;28;20051;-71
2022/10/17 05:13:17;;;;;;;3.83;2.72;;;;;;;15.55;71.35;101520.38;5086475;28;20556;-69
2022/10/17 05:15:45;;;;;;;3.47;2.78;;;;;;;15.56;71.35;101530.16;5085625;28;20064;-69
2022/10/17 05:18:13;;;;;;;5.07;3.00;;;;;;;15.56;71.50;101530.16;5080526;28;20059;-70
2022/10/17 05:20:40;;;;;;;6.43;2.80;;;;;;;15.56;71.48;101528.28;5085627;28;20048;-71
2022/10/17 05:23:09;;;;;;;5.32;2.95;;;;;;;15.56;71.23;101533.69;5094989;28;20052;-71
2022/10/17 05:25:37;;;;;;;5.22;3.35;;;;;;;15.56;71.38;101535.59;5080171;28;20133;-71
2022/10/17 05:28:05;;;;;;;3.25;2.65;;;;;;;15.57;71.32;101542.69;5076992;28;20413;-69
2022/10/17 05:30:34;;;;;;;4.43;2.95;;;;;;;15.58;71.17;101544.31;5084532;28;20049;-68
2022/10/17 05:33:04;;;;;;;4.63;3.08;;;;;;;15.58;71.34;101533.50;5086581;28;20071;-70
2022/10/17 05:35:32;;;;;;;6.10;3.08;;;;;;;15.58;71.26;101553.28;5088565;28;20058;-66
2022/10/17 05:38:00;;;;;;;3.15;2.42;;;;;;;15.57;71.29;101554.34;5088249;28;20051;-72
2022/10/17 05:40:29;;;;;;;5.03;2.90;;;;;;;15.57;71.21;101551.63;5084753;28;20036;-70
2022/10/17 05:42:57;;;;;;;7.93;3.85;;;;;;;15.58;71.34;101557.88;5091336;28;20052;-72
2022/10/17 05:45:25;;;;;;;6.07;2.70;;;;;;;15.57;71.23;101564.34;5084120;28;20128;-68
2022/10/17 05:47:53;;;;;;;6.38;2.67;;;;;;;15.57;71.41;101559.75;5080399;28;20055;-66
2022/10/17 05:50:22;;;;;;;6.15;3.45;;;;;;;15.58;71.41;101564.13;5080715;28;20044;-70
2022/10/17 05:52:53;;;;;;;5.53;2.80;;;;;;;15.57;71.38;101573.31;5075518;28;20139;-71
2022/10/17 05:55:21;;;;;;;5.03;2.70;;;;;;;15.58;71.40;101563.28;5079483;28;20053;-73
2022/10/17 05:57:51;;;;;;;3.78;2.67;;;;;;;15.57;71.32;101557.03;5080951;28;20629;-72
2022/10/17 06:00:20;;;;;;;4.25;3.13;;;;;;;15.58;71.47;101561.41;5076757;28;20052;-72
2022/10/17 06:02:48;;;;;;;4.05;3.05;;;;;;;15.57;71.53;101562.47;5076599;28;20501;-68
2022/10/17 06:05:16;;;;;;;4.03;2.78;;;;;;;15.58;71.35;101557.88;5069739;28;20073;-72
2022/10/17 06:07:53;;;;;;;4.50;2.60;;;;;;;15.58;71.49;101564.13;4788402;27;10002417;-70
2022/10/17 06:10:26;;;;;;;4.25;2.97;;;;;;;15.58;71.35;101564.13;5127095;28;20052;-73
2022/10/17 06:12:53;;;;;;;5.22;2.95;;;;;;;15.57;71.10;101559.75;5121393;28;20052;-65
2022/10/17 06:15:21;;;;;;;8.60;3.55;;;;;;;15.57;73.67;101562.47;5134269;28;20044;-70
2022/10/17 06:17:49;;;;;;;6.22;3.25;;;;;;;15.56;72.87;101568.91;5132148;27;20047;-71
2022/10/17 06:20:17;;;;;;;6.07;3.00;;;;;;;15.57;72.42;101562.47;5121390;28;20048;-71
2022/10/17 06:22:44;;;;;;;6.97;3.40;;;;;;;15.57;72.65;101564.34;5119333;28;20054;-71
2022/10/17 06:25:14;;;;;;;8.82;3.50;;;;;;;15.55;72.49;101569.16;5118299;28;20047;-71
2022/10/17 06:27:41;;;;;;;10.60;2.97;;;;;;;15.57;72.64;101565.19;5133616;28;20047;-71
2022/10/17 06:30:10;;;;;;;4.18;2.88;;;;;;;15.58;72.58;101574.13;5126855;28;20181;-70
2022/10/17 06:32:38;;;;;;;6.28;3.30;;;;;;;15.58;72.51;101572.25;5125039;28;20047;-69
2022/10/17 06:35:06;;;;;;;4.13;2.80;;;;;;;15.59;72.32;101575.78;5121302;28;20048;-70
2022/10/17 06:37:35;;;;;;;7.05;2.97;;;;;;;15.59;72.51;101568.47;5120818;27;20103;-70
2022/10/17 06:40:06;;;;;;;3.67;2.88;;;;;;;15.59;72.57;101587.44;5127880;28;20078;-70
2022/10/17 06:42:35;;;;;;;5.25;2.75;;;;;;;15.58;72.52;101580.38;5125875;27;20513;-70
2022/10/17 06:45:03;;;;;;;6.18;3.10;;;;;;;15.58;72.37;101585.78;5125886;27;20062;-70
2022/10/17 06:47:31;;;;;;;7.05;3.05;;;;;;;15.58;72.61;101588.50;5123367;27;20173;-70
2022/10/17 06:49:59;;;;;;;4.00;2.95;;;;;;;15.58;72.69;101593.91;5123979;28;20356;-70
2022/10/17 06:52:27;;;;;;;3.17;2.65;;;;;;;15.59;72.56;101598.28;5132435;28;20119;-70
2022/10/17 06:54:55;;;;;;;4.57;3.38;;;;;;;15.60;72.58;101593.69;5127616;28;20071;-70
2022/10/17 06:57:22;;;;;;;5.55;3.33;;;;;;;15.59;72.81;101583.91;5134369;28;20664;-70
2022/10/17 06:59:52;;;;;;;5.15;2.72;;;;;;;15.60;72.83;101589.06;5134132;28;20061;-70
2022/10/17 07:02:22;;;;;;;4.13;2.92;;;;;;;15.60;72.87;101591.75;5129934;28;20145;-70
2022/10/17 07:04:50;;;;;;;5.47;3.08;;;;;;;15.60;72.66;101589.06;5124862;28;20070;-70
2022/10/17 07:07:18;;;;;;;6.93;2.80;;;;;;;15.61;72.74;101600.72;5128403;28;20057;-70
2022/10/17 07:09:45;;;;;;;10.35;3.03;;;;;;;15.60;72.68;101597.19;5131122;28;20052;-70
2022/10/17 07:12:13;;;;;;;4.55;2.60;;;;;;;15.62;72.59;101613.22;5127052;28;20572;-69
2022/10/17 07:14:41;;;;;;;3.72;2.88;;;;;;;15.62;72.59;101611.31;5122293;28;20047;-70
2022/10/17 07:17:12;;;;;;;7.32;2.85;;;;;;;15.63;72.35;101620.28;5124406;28;20039;-70
2022/10/17 07:19:42;;;;;;;7.47;2.85;;;;;;;15.63;72.48;101618.38;5106876;28;20052;-69
2022/10/17 07:22:10;;;;;;;6.32;3.08;;;;;;;15.63;72.57;101617.56;5107848;28;20408;-70
2022/10/17 07:24:38;;;;;;;3.80;2.55;;;;;;;15.66;72.49;101629.81;5114839;28;20047;-70
2022/10/17 07:27:07;;;;;;;6.38;2.70;;;;;;;15.66;72.61;101632.53;5107831;28;20082;-70
2022/10/17 07:29:36;;;;;;;4.57;3.13;;;;;;;15.66;72.67;101627.94;5108550;28;20063;-69
2022/10/17 07:32:07;;;;;;;7.10;3.33;;;;;;;15.68;72.55;101641.25;5110084;28;20043;-71
2022/10/17 07:34:36;;;;;;;5.30;2.97;;;;;;;15.69;72.73;101645.59;5116597;28;20082;-70
2022/10/17 07:37:05;;;;;;;5.78;3.22;;;;;;;15.70;72.75;101652.69;5119172;28;20055;-71
2022/10/17 07:39:34;;;;;;;3.95;2.60;;;;;;;15.69;72.56;101665.41;5106258;28;20581;-71
2022/10/17 07:42:02;;;;;;;5.85;2.63;;;;;;;15.69;72.63;101675.41;5111915;28;20103;-70
2022/10/17 07:44:30;;;;;;;4.43;2.63;;;;;;;15.70;72.70;101699.56;5104252;28;20044;-70
2022/10/17 07:46:57;;;;;;;5.00;3.00;;;;;;;15.72;72.79;101707.47;5107882;28;20043;-71
2022/10/17 07:49:25;;;;;;;4.82;2.70;;;;;;;15.78;72.53;101712.78;5112826;28;20136;-69
2022/10/17 07:51:54;;;;;;;3.97;2.70;;;;;;;15.91;72.15;101723.38;5114804;28;20056;-71
2022/10/17 07:54:22;;;;;;;4.88;2.65;;;;;;;16.09;71.67;101729.75;5103841;28;20056;-71
2022/10/17 07:56:50;;;;;;;5.90;2.97;;;;;;;16.26;71.19;101725.25;5110506;28;20048;-71
2022/10/17 07:59:18;;;;;;;8.73;2.92;;;;;;;16.41;70.65;101731.00;5102780;28;20062;-72
2022/10/17 08:01:46;;;;;;;6.28;2.95;;;;;;;16.58;70.17;101736.50;5103196;28;20115;-71
2022/10/17 08:04:15;;;;;;;5.50;2.60;;;;;;;16.74;69.62;101741.22;5102906;28;20131;-72
2022/10/17 08:06:43;;;;;;;4.47;2.72;;;;;;;16.91;69.22;101757.56;5102360;28;20062;-70
2022/10/17 08:09:12;;;;;;;5.85;2.65;;;;;;;16.97;68.97;101751.16;5106281;28;20071;-71
2022/10/17 08:11:42;;;;;;;6.18;2.72;;;;;;;16.89;68.66;101746.13;5114667;28;20058;-71
2022/10/17 08:14:10;;;;;;;8.27;2.38;;;;;;;16.90;68.80;101764.06;5107224;28;20138;-69
2022/10/17 08:16:38;;;;;;;9.02;3.33;;;;;;;16.81;69.39;101773.66;5108117;28;20182;-71
2022/10/17 08:19:07;;;;;;;8.43;2.80;;;;;;;16.68;69.79;101788.31;5113614;28;20066;-70
2022/10/17 08:21:40;;;;;;;5.10;2.83;;;;;;;16.59;70.03;101789.72;5113525;28;20527;-71
2022/10/17 08:24:08;;;;;;;6.40;3.00;;;;;;;16.48;70.33;101793.28;5102889;28;20105;-73
2022/10/17 08:26:37;;;;;;;6.20;2.90;;;;;;;16.46;70.67;101793.53;5102324;28;20052;-67
2022/10/17 08:29:12;;;;;;;6.88;3.35;;;;;;;16.41;71.30;101796.13;5101903;28;20176;-70
2022/10/17 08:31:40;;;;;;;4.47;2.75;;;;;;;16.36;71.25;101797.91;5113518;28;20058;-72
2022/10/17 08:34:14;;;;;;;4.85;2.90;;;;;;;16.34;71.46;101805.44;5106374;28;20115;-70
2022/10/17 08:36:42;;;;;;;5.22;2.78;;;;;;;16.30;71.55;101799.66;5116500;28;20619;-71
2022/10/17 08:39:10;;;;;;;5.05;2.95;;;;;;;16.28;71.58;101805.31;5113903;28;20056;-70
2022/10/17 08:41:51;;;;;;;6.60;3.90;;;;;;;16.26;71.77;101822.91;5107839;28;20052;-72
2022/10/17 08:44:33;;;;;;;6.40;3.10;;;;;;;16.22;71.75;101825.25;5104331;28;20120;-70
2022/10/17 08:47:05;;;;;;;7.38;2.83;;;;;;;16.19;71.81;101814.06;5105421;28;20044;-71
2022/10/17 08:49:40;;;;;;;12.90;3.13;;;;;;;16.20;71.97;101804.84;5102685;28;20146;-70
2022/10/17 08:52:17;;;;;;;4.55;2.67;;;;;;;16.19;72.16;101808.63;5111752;28;20066;-72
2022/10/17 08:54:46;;;;;;;5.30;3.15;;;;;;;16.16;72.08;101799.06;5111946;28;20059;-71
2022/10/17 08:57:17;;;;;;;4.72;2.38;;;;;;;16.16;72.14;101804.50;5104570;28;20040;-71
2022/10/17 08:59:50;;;;;;;4.72;2.60;;;;;;;16.14;72.14;101803.09;5102831;28;20482;-71
2022/10/17 09:02:43;;;;;;;4.30;2.75;;;;;;;16.13;72.20;101806.84;5110353;28;20043;-71
2022/10/17 09:05:34;;;;;;;5.78;3.30;;;;;;;16.12;72.32;101808.75;5114110;28;20480;-70
2022/10/17 09:08:12;;;;;;;6.35;3.15;;;;;;;16.10;72.43;101819.00;5105207;28;20059;-70
2022/10/17 09:10:50;;;;;;;5.35;2.80;;;;;;;16.11;72.38;101827.97;5106708;28;20047;-67
2022/10/17 09:13:40;;;;;;;4.55;3.00;;;;;;;16.08;72.57;101831.13;5112180;28;20050;-69
2022/10/17 09:16:24;;;;;;;7.75;3.08;;;;;;;16.10;72.84;101853.44;5110120;28;20408;-69
2022/10/17 09:19:01;;;;;;;6.20;3.28;;;;;;;16.10;72.99;101896.81;5116021;28;20044;-68
2022/10/17 09:21:33;;;;;;;;;;;;;;;16.09;72.85;101943.97;5117550;28;20116;-69
2022/10/17 09:24:04;;;;;;;6.18;3.25;;;;;;;16.09;73.28;101830.09;5109701;28;19924;-68
2022/10/17 09:26:37;;;;;;;4.75;2.75;;;;;;;16.14;72.82;101825.59;5105553;28;20470;-68
2022/10/17 09:29:20;;;;;;;5.68;3.67;;;;;;;16.03;72.83;101793.88;5104669;28;20509;-68
2022/10/17 09:31:57;;;;;;;7.57;2.90;;;;;;;16.09;72.90;101786.69;5109143;28;20044;-68
2022/10/17 09:34:28;;;;;;;4.28;3.08;;;;;;;16.08;72.95;101790.47;5107844;28;20427;-69
2022/10/17 09:36:58;;;;;;;4.47;2.85;;;;;;;16.07;72.74;101797.78;5105014;28;20063;-68
2022/10/17 09:39:30;;;;;;;7.82;3.08;;;;;;;16.05;72.84;101799.91;5105154;28;20055;-68
2022/10/17 09:42:00;;;;;;;5.88;3.40;;;;;;;16.06;72.93;101814.28;5105680;28;20063;-69
2022/10/17 09:44:32;;;;;;;5.70;3.20;;;;;;;16.06;72.61;101820.53;5107873;28;20052;-69
2022/10/17 09:47:17;;;;;;;4.15;2.65;;;;;;;16.07;73.06;101840.34;5108699;28;20123;-68
2022/10/17 09:49:47;;;;;;;8.25;3.00;;;;;;;16.07;73.12;101843.88;5105875;28;20048;-68
2022/10/17 09:52:17;;;;;;;6.53;3.10;;;;;;;16.15;72.73;101850.84;5111744;28;20079;-71
2022/10/17 09:54:48;;;;;;;4.93;3.10;;;;;;;16.25;72.49;101846.50;5110331;28;20074;-69
2022/10/17 09:57:17;;;;;;;5.65;2.85;;;;;;;16.43;71.74;101826.56;5108388;28;20044;-69
2022/10/17 09:59:55;;;;;;;6.30;3.20;;;;;;;16.62;71.18;101821.00;5104568;28;20497;-69
2022/10/17 10:02:25;;;;;;;5.05;2.47;;;;;;;16.82;70.33;101810.59;5108270;28;20134;-69
2022/10/17 10:04:57;;;;;;;5.75;2.80;;;;;;;16.93;69.74;101820.59;5108276;28;20107;-69
2022/10/17 10:07:37;;;;;;;3.53;2.45;;;;;;;16.94;69.57;101816.00;5104335;28;20052;-68
2022/10/17 10:10:07;;;;;;;4.50;2.60;;;;;;;16.89;69.58;101825.69;5107926;28;20047;-68
2022/10/17 10:12:37;;;;;;;5.50;2.63;;;;;;;16.83;69.98;101831.25;5117630;28;20067;-69
2022/10/17 10:15:31;;;;;;;7.53;2.50;;;;;;;16.74;70.20;101829.97;5104290;28;20107;-69
2022/10/17 10:17:58;;;;;;;4.32;2.95;;;;;;;16.66;70.52;101839.31;5109419;28;20106;-68
2022/10/17 10:20:34;;;;;;;4.95;3.20;;;;;;;16.60;70.72;101849.19;5109642;28;20048;-69
2022/10/17 10:23:07;;;;;;;5.97;3.13;;;;;;;16.56;71.24;101860.75;5113809;28;20134;-68
2022/10/17 10:25:35;;;;;;;6.15;2.70;;;;;;;16.52;71.18;101873.16;5104946;28;20044;-68
2022/10/17 10:28:10;;;;;;;4.38;2.17;;;;;;;16.50;71.15;101869.84;5107656;28;20047;-72
2022/10/17 10:30:39;;;;;;;4.25;2.50;;;;;;;16.48;71.26;101869.25;5104870;28;20040;-68
2022/10/17 10:33:11;;;;;;;3.58;2.20;;;;;;;16.45;71.42;101864.31;5113042;28;20051;-69
2022/10/17 10:35:39;;;;;;;3.95;2.42;;;;;;;16.35;71.44;101854.03;5125084;28;20052;-70
2022/10/17 10:38:11;;;;;;;3.78;2.78;;;;;;;16.40;71.46;101873.16;5110505;28;20066;-72
2022/10/17 10:40:46;;;;;;;5.35;2.38;;;;;;;16.40;71.58;101885.91;5107428;28;20052;-72
2022/10/17 10:43:23;;;;;;;4.82;2.50;;;;;;;16.38;71.46;101909.72;5109749;28;20063;-70
2022/10/17 10:45:53;;;;;;;3.45;2.55;;;;;;;16.38;71.59;101926.00;5109504;28;20050;-71
2022/10/17 10:48:23;;;;;;;7.38;2.50;;;;;;;16.35;71.73;101935.44;5103664;28;20048;-71
2022/10/17 10:50:56;;;;;;;6.30;2.78;;;;;;;16.36;71.74;101938.97;5104497;28;20048;-70
2022/10/17 10:53:34;;;;;;;4.85;2.40;;;;;;;16.34;71.88;101927.53;5106319;28;20131;-71
2022/10/17 10:56:16;;;;;;;2.80;2.40;;;;;;;16.33;71.73;101923.16;5122073;28;20084;-70
2022/10/17 10:58:55;;;;;;;5.28;2.67;;;;;;;16.31;71.72;101917.97;5109678;28;20131;-71
2022/10/17 11:01:31;;;;;;;4.85;3.25;;;;;;;16.31;71.77;101917.97;5108152;28;20048;-71
2022/10/17 11:04:20;;;;;;;4.80;2.67;;;;;;;16.30;72.08;101923.63;5119418;28;20055;-71
2022/10/17 11:06:52;;;;;;;5.05;3.03;;;;;;;16.31;71.91;101936.13;5110281;28;20056;-71
2022/10/17 11:09:30;;;;;;;6.35;3.50;;;;;;;16.31;71.92;101930.72;5110486;28;20054;-70
2022/10/17 11:12:06;;;;;;;4.95;2.55;;;;;;;16.31;72.00;101926.09;5116767;28;20133;-70
2022/10/17 11:14:47;;;;;;;6.00;2.60;;;;;;;16.31;71.97;101939.66;5113214;28;20135;-70
2022/10/17 11:17:30;;;;;;;4.05;2.65;;;;;;;16.28;71.93;101938.25;5107020;28;20048;-71
2022/10/17 11:20:10;;;;;;;6.63;2.60;;;;;;;16.31;72.24;101947.81;5115893;28;20054;-70
2022/10/17 11:22:43;;;;;;;4.03;2.40;;;;;;;16.31;72.14;101955.13;5107122;28;20052;-71
2022/10/17 11:25:24;;;;;;;3.63;2.50;;;;;;;16.31;72.25;101955.94;5109704;28;20052;-70
2022/10/17 11:27:52;;;;;;;4.43;3.00;;;;;;;16.25;72.11;101948.75;5113660;28;20047;-70
2022/10/17 11:30:23;;;;;;;7.68;3.05;;;;;;;16.32;72.47;101964.91;5112558;28;20055;-71
2022/10/17 11:32:55;;;;;;;5.65;2.72;;;;;;;16.33;72.44;101972.00;5109451;28;20131;-72
2022/10/17 11:35:26;;;;;;;9.02;2.55;;;;;;;16.32;72.36;101973.06;5108939;28;20040;-71
2022/10/17 11:38:03;;;;;;;5.03;2.70;;;;;;;16.33;72.56;101977.41;5119354;28;20148;-71
2022/10/17 11:40:35;;;;;;;6.63;3.15;;;;;;;16.33;72.62;101980.13;5109115;28;20040;-72
2022/10/17 11:43:06;;;;;;;6.15;2.92;;;;;;;16.30;72.46;101978.72;5109346;28;20052;-72